sensor_id;sensor_type;location;lat;lon;timestamp;P1;durP1;ratioP1;P2;durP2;ratioP2
78889;SDS011;68279;48.964;14.502;2023-07-13T00:00:36;3.38;;;1.92;;
78889;SDS011;68279;48.964;14.502;2023-07-13T00:03:03;3.60;;;1.92;;
78889;SDS011;68279;48.964;14.502;2023-07-13T00:05:29;3.40;;;1.70;;
78889;SDS011;68279;48.964;14.502;2023-07-13T00:07:56;4.50;;;1.90;;
78889;SDS011;68279;48.964;14.502;2023-07-13T00:10:22;4.03;;;1.90;;
78889;SDS011;68279;48.964;14.502;2023-07-13T00:12:48;4.47;;;2.05;;
78889;SDS011;68279;48.964;14.502;2023-07-13T00:15:16;3.85;;;2.00;;
78889;SDS011;68279;48.964;14.502;2023-07-13T00:17:48;2.50;;;1.30;;
78889;SDS011;68279;48.964;14.502;2023-07-13T00:20:15;4.25;;;2.05;;
78889;SDS011;68279;48.964;14.502;2023-07-13T00:22:41;3.33;;;1.95;;
78889;SDS011;68279;48.964;14.502;2023-07-13T00:25:08;4.53;;;1.73;;
78889;SDS011;68279;48.964;14.502;2023-07-13T00:27:36;6.22;;;2.30;;
78889;SDS011;68279;48.964;14.502;2023-07-13T00:30:02;4.00;;;2.47;;
78889;SDS011;68279;48.964;14.502;2023-07-13T00:32:28;4.13;;;1.88;;
78889;SDS011;68279;48.964;14.502;2023-07-13T00:34:55;4.28;;;2.00;;
78889;SDS011;68279;48.964;14.502;2023-07-13T00:37:22;3.67;;;1.90;;
78889;SDS011;68279;48.964;14.502;2023-07-13T00:39:48;3.95;;;2.05;;
78889;SDS011;68279;48.964;14.502;2023-07-13T00:42:13;4.88;;;1.88;;
78889;SDS011;68279;48.964;14.502;2023-07-13T00:44:40;3.90;;;2.03;;
78889;SDS011;68279;48.964;14.502;2023-07-13T00:47:05;4.63;;;2.40;;
78889;SDS011;68279;48.964;14.502;2023-07-13T00:49:37;3.72;;;2.03;;
78889;SDS011;68279;48.964;14.502;2023-07-13T00:52:07;4.20;;;2.20;;
78889;SDS011;68279;48.964;14.502;2023-07-13T00:54:37;3.88;;;2.35;;
78889;SDS011;68279;48.964;14.502;2023-07-13T00:57:06;4.15;;;1.63;;
78889;SDS011;68279;48.964;14.502;2023-07-13T00:59:35;4.28;;;2.42;;
78889;SDS011;68279;48.964;14.502;2023-07-13T01:02:04;3.85;;;2.22;;
78889;SDS011;68279;48.964;14.502;2023-07-13T01:04:30;4.47;;;2.22;;
78889;SDS011;68279;48.964;14.502;2023-07-13T01:06:56;4.63;;;2.78;;
78889;SDS011;68279;48.964;14.502;2023-07-13T01:09:23;4.70;;;2.80;;
78889;SDS011;68279;48.964;14.502;2023-07-13T01:11:48;4.38;;;2.00;;
78889;SDS011;68279;48.964;14.502;2023-07-13T01:14:14;4.40;;;2.58;;
78889;SDS011;68279;48.964;14.502;2023-07-13T01:16:42;6.90;;;2.35;;
78889;SDS011;68279;48.964;14.502;2023-07-13T01:19:19;4.55;;;2.60;;
78889;SDS011;68279;48.964;14.502;2023-07-13T01:22:01;5.93;;;2.55;;
78889;SDS011;68279;48.964;14.502;2023-07-13T01:24:37;5.82;;;2.60;;
78889;SDS011;68279;48.964;14.502;2023-07-13T01:27:04;7.30;;;3.42;;
78889;SDS011;68279;48.964;14.502;2023-07-13T01:29:32;4.47;;;2.97;;
78889;SDS011;68279;48.964;14.502;2023-07-13T01:32:08;5.15;;;2.65;;
78889;SDS011;68279;48.964;14.502;2023-07-13T01:34:37;5.28;;;2.97;;
78889;SDS011;68279;48.964;14.502;2023-07-13T01:37:04;5.43;;;3.03;;
78889;SDS011;68279;48.964;14.502;2023-07-13T01:39:30;6.93;;;2.70;;
78889;SDS011;68279;48.964;14.502;2023-07-13T01:41:56;4.28;;;2.85;;
78889;SDS011;68279;48.964;14.502;2023-07-13T01:44:22;4.47;;;3.05;;
78889;SDS011;68279;48.964;14.502;2023-07-13T01:46:48;5.18;;;2.92;;
78889;SDS011;68279;48.964;14.502;2023-07-13T01:49:14;4.32;;;3.03;;
78889;SDS011;68279;48.964;14.502;2023-07-13T01:51:39;6.35;;;3.30;;
78889;SDS011;68279;48.964;14.502;2023-07-13T01:54:05;5.47;;;3.00;;
78889;SDS011;68279;48.964;14.502;2023-07-13T01:56:30;6.07;;;2.78;;
78889;SDS011;68279;48.964;14.502;2023-07-13T01:58:56;6.70;;;3.60;;
78889;SDS011;68279;48.964;14.502;2023-07-13T02:01:22;4.72;;;2.78;;
78889;SDS011;68279;48.964;14.502;2023-07-13T02:03:47;5.25;;;2.80;;
78889;SDS011;68279;48.964;14.502;2023-07-13T02:06:13;5.20;;;2.83;;
78889;SDS011;68279;48.964;14.502;2023-07-13T02:08:41;4.50;;;2.85;;
78889;SDS011;68279;48.964;14.502;2023-07-13T02:11:07;5.13;;;2.78;;
78889;SDS011;68279;48.964;14.502;2023-07-13T02:13:33;4.95;;;2.55;;
78889;SDS011;68279;48.964;14.502;2023-07-13T02:15:59;4.03;;;2.88;;
78889;SDS011;68279;48.964;14.502;2023-07-13T02:18:25;4.55;;;2.78;;
78889;SDS011;68279;48.964;14.502;2023-07-13T02:20:52;4.43;;;2.83;;
78889;SDS011;68279;48.964;14.502;2023-07-13T02:23:18;5.82;;;2.83;;
78889;SDS011;68279;48.964;14.502;2023-07-13T02:25:44;6.70;;;2.83;;
78889;SDS011;68279;48.964;14.502;2023-07-13T02:28:10;5.32;;;3.22;;
78889;SDS011;68279;48.964;14.502;2023-07-13T02:30:36;5.45;;;2.75;;
78889;SDS011;68279;48.964;14.502;2023-07-13T02:33:02;4.03;;;2.47;;
78889;SDS011;68279;48.964;14.502;2023-07-13T02:35:28;6.10;;;3.70;;
78889;SDS011;68279;48.964;14.502;2023-07-13T02:37:53;6.05;;;3.25;;
78889;SDS011;68279;48.964;14.502;2023-07-13T02:40:20;5.85;;;3.13;;
78889;SDS011;68279;48.964;14.502;2023-07-13T02:42:45;6.07;;;3.83;;
78889;SDS011;68279;48.964;14.502;2023-07-13T02:45:13;4.88;;;2.88;;
78889;SDS011;68279;48.964;14.502;2023-07-13T02:47:40;4.80;;;3.00;;
78889;SDS011;68279;48.964;14.502;2023-07-13T02:50:07;6.38;;;3.13;;
78889;SDS011;68279;48.964;14.502;2023-07-13T02:52:33;4.30;;;2.78;;
78889;SDS011;68279;48.964;14.502;2023-07-13T02:54:58;4.95;;;2.95;;
78889;SDS011;68279;48.964;14.502;2023-07-13T02:57:24;4.82;;;3.22;;
78889;SDS011;68279;48.964;14.502;2023-07-13T02:59:50;4.43;;;3.00;;
78889;SDS011;68279;48.964;14.502;2023-07-13T03:02:15;5.22;;;3.15;;
78889;SDS011;68279;48.964;14.502;2023-07-13T03:04:48;4.90;;;3.00;;
78889;SDS011;68279;48.964;14.502;2023-07-13T03:07:13;4.60;;;2.55;;
78889;SDS011;68279;48.964;14.502;2023-07-13T03:09:46;5.38;;;3.42;;
78889;SDS011;68279;48.964;14.502;2023-07-13T03:12:12;4.97;;;2.88;;
78889;SDS011;68279;48.964;14.502;2023-07-13T03:14:48;5.40;;;3.00;;
78889;SDS011;68279;48.964;14.502;2023-07-13T03:17:15;5.50;;;3.47;;
78889;SDS011;68279;48.964;14.502;2023-07-13T03:19:41;6.55;;;3.00;;
78889;SDS011;68279;48.964;14.502;2023-07-13T03:22:06;5.20;;;3.63;;
78889;SDS011;68279;48.964;14.502;2023-07-13T03:24:39;4.95;;;3.38;;
78889;SDS011;68279;48.964;14.502;2023-07-13T03:27:06;5.57;;;3.42;;
78889;SDS011;68279;48.964;14.502;2023-07-13T03:29:32;5.43;;;3.28;;
78889;SDS011;68279;48.964;14.502;2023-07-13T03:31:58;6.88;;;4.03;;
78889;SDS011;68279;48.964;14.502;2023-07-13T03:34:24;6.28;;;3.85;;
78889;SDS011;68279;48.964;14.502;2023-07-13T03:36:50;6.22;;;3.70;;
78889;SDS011;68279;48.964;14.502;2023-07-13T03:39:15;5.63;;;3.88;;
78889;SDS011;68279;48.964;14.502;2023-07-13T03:41:41;6.28;;;3.75;;
78889;SDS011;68279;48.964;14.502;2023-07-13T03:44:06;5.18;;;3.42;;
78889;SDS011;68279;48.964;14.502;2023-07-13T03:46:33;8.07;;;4.85;;
78889;SDS011;68279;48.964;14.502;2023-07-13T03:48:59;5.93;;;3.92;;
78889;SDS011;68279;48.964;14.502;2023-07-13T03:51:25;6.68;;;4.18;;
78889;SDS011;68279;48.964;14.502;2023-07-13T03:53:50;4.93;;;3.30;;
78889;SDS011;68279;48.964;14.502;2023-07-13T03:56:16;6.13;;;3.63;;
78889;SDS011;68279;48.964;14.502;2023-07-13T03:58:47;4.93;;;3.05;;
78889;SDS011;68279;48.964;14.502;2023-07-13T04:01:15;6.78;;;4.15;;
78889;SDS011;68279;48.964;14.502;2023-07-13T04:03:43;6.80;;;4.07;;
78889;SDS011;68279;48.964;14.502;2023-07-13T04:06:18;6.63;;;3.47;;
78889;SDS011;68279;48.964;14.502;2023-07-13T04:08:46;7.03;;;4.22;;
78889;SDS011;68279;48.964;14.502;2023-07-13T04:11:14;6.03;;;3.70;;
78889;SDS011;68279;48.964;14.502;2023-07-13T04:13:40;6.53;;;4.20;;
78889;SDS011;68279;48.964;14.502;2023-07-13T04:16:07;7.20;;;3.65;;
78889;SDS011;68279;48.964;14.502;2023-07-13T04:18:32;6.05;;;3.67;;
78889;SDS011;68279;48.964;14.502;2023-07-13T04:20:59;9.23;;;3.75;;
78889;SDS011;68279;48.964;14.502;2023-07-13T04:23:24;5.88;;;3.97;;
78889;SDS011;68279;48.964;14.502;2023-07-13T04:25:51;5.15;;;3.17;;
78889;SDS011;68279;48.964;14.502;2023-07-13T04:28:20;6.05;;;3.90;;
78889;SDS011;68279;48.964;14.502;2023-07-13T04:30:46;6.03;;;4.35;;
78889;SDS011;68279;48.964;14.502;2023-07-13T04:33:12;4.57;;;3.08;;
78889;SDS011;68279;48.964;14.502;2023-07-13T04:35:38;7.63;;;3.75;;
78889;SDS011;68279;48.964;14.502;2023-07-13T04:38:04;7.85;;;3.75;;
78889;SDS011;68279;48.964;14.502;2023-07-13T04:40:32;6.35;;;3.60;;
78889;SDS011;68279;48.964;14.502;2023-07-13T04:42:57;7.47;;;3.50;;
78889;SDS011;68279;48.964;14.502;2023-07-13T04:45:23;6.40;;;5.63;;
78889;SDS011;68279;48.964;14.502;2023-07-13T04:47:51;5.38;;;2.92;;
78889;SDS011;68279;48.964;14.502;2023-07-13T04:50:18;5.88;;;3.47;;
78889;SDS011;68279;48.964;14.502;2023-07-13T04:52:49;6.40;;;3.10;;
78889;SDS011;68279;48.964;14.502;2023-07-13T04:55:18;4.97;;;2.83;;
78889;SDS011;68279;48.964;14.502;2023-07-13T04:57:44;5.10;;;3.25;;
78889;SDS011;68279;48.964;14.502;2023-07-13T05:00:10;4.05;;;2.67;;
78889;SDS011;68279;48.964;14.502;2023-07-13T05:02:37;4.47;;;2.42;;
78889;SDS011;68279;48.964;14.502;2023-07-13T05:05:03;5.22;;;2.75;;
78889;SDS011;68279;48.964;14.502;2023-07-13T05:07:29;4.88;;;2.53;;
78889;SDS011;68279;48.964;14.502;2023-07-13T05:09:55;3.90;;;2.13;;
78889;SDS011;68279;48.964;14.502;2023-07-13T05:12:21;4.78;;;2.70;;
78889;SDS011;68279;48.964;14.502;2023-07-13T05:14:47;4.93;;;2.55;;
78889;SDS011;68279;48.964;14.502;2023-07-13T05:17:25;4.68;;;2.80;;
78889;SDS011;68279;48.964;14.502;2023-07-13T05:19:55;3.75;;;2.40;;
78889;SDS011;68279;48.964;14.502;2023-07-13T05:22:28;4.53;;;3.15;;
78889;SDS011;68279;48.964;14.502;2023-07-13T05:24:54;4.15;;;2.40;;
78889;SDS011;68279;48.964;14.502;2023-07-13T05:27:25;6.38;;;2.65;;
78889;SDS011;68279;48.964;14.502;2023-07-13T05:29:51;5.40;;;2.55;;
78889;SDS011;68279;48.964;14.502;2023-07-13T05:32:17;3.97;;;2.47;;
78889;SDS011;68279;48.964;14.502;2023-07-13T05:34:43;4.25;;;2.55;;
78889;SDS011;68279;48.964;14.502;2023-07-13T05:37:09;6.20;;;3.13;;
78889;SDS011;68279;48.964;14.502;2023-07-13T05:39:35;5.00;;;2.90;;
78889;SDS011;68279;48.964;14.502;2023-07-13T05:42:02;4.43;;;2.40;;
78889;SDS011;68279;48.964;14.502;2023-07-13T05:44:28;4.07;;;1.88;;
78889;SDS011;68279;48.964;14.502;2023-07-13T05:46:55;4.38;;;2.60;;
78889;SDS011;68279;48.964;14.502;2023-07-13T05:49:22;4.32;;;2.08;;
78889;SDS011;68279;48.964;14.502;2023-07-13T05:51:48;6.85;;;2.88;;
78889;SDS011;68279;48.964;14.502;2023-07-13T05:54:14;4.68;;;2.30;;
78889;SDS011;68279;48.964;14.502;2023-07-13T05:56:40;4.03;;;2.65;;
78889;SDS011;68279;48.964;14.502;2023-07-13T05:59:06;5.53;;;2.75;;
78889;SDS011;68279;48.964;14.502;2023-07-13T06:01:31;3.72;;;2.33;;
78889;SDS011;68279;48.964;14.502;2023-07-13T06:03:57;3.65;;;2.30;;
78889;SDS011;68279;48.964;14.502;2023-07-13T06:06:23;3.85;;;2.22;;
78889;SDS011;68279;48.964;14.502;2023-07-13T06:08:49;5.50;;;2.90;;
78889;SDS011;68279;48.964;14.502;2023-07-13T06:11:16;4.22;;;2.25;;
78889;SDS011;68279;48.964;14.502;2023-07-13T06:13:43;4.40;;;2.28;;
78889;SDS011;68279;48.964;14.502;2023-07-13T06:16:17;3.00;;;1.92;;
78889;SDS011;68279;48.964;14.502;2023-07-13T06:18:43;5.68;;;2.50;;
78889;SDS011;68279;48.964;14.502;2023-07-13T06:21:10;3.75;;;2.22;;
78889;SDS011;68279;48.964;14.502;2023-07-13T06:23:38;5.88;;;2.42;;
78889;SDS011;68279;48.964;14.502;2023-07-13T06:26:04;2.97;;;2.13;;
78889;SDS011;68279;48.964;14.502;2023-07-13T06:28:31;4.22;;;2.35;;
78889;SDS011;68279;48.964;14.502;2023-07-13T06:30:59;4.80;;;2.40;;
78889;SDS011;68279;48.964;14.502;2023-07-13T06:33:25;5.22;;;2.40;;
78889;SDS011;68279;48.964;14.502;2023-07-13T06:35:51;5.28;;;2.10;;
78889;SDS011;68279;48.964;14.502;2023-07-13T06:38:18;4.05;;;2.25;;
78889;SDS011;68279;48.964;14.502;2023-07-13T06:40:43;3.63;;;2.20;;
78889;SDS011;68279;48.964;14.502;2023-07-13T06:43:09;4.22;;;2.65;;
78889;SDS011;68279;48.964;14.502;2023-07-13T06:45:39;3.25;;;1.77;;
78889;SDS011;68279;48.964;14.502;2023-07-13T06:48:06;3.90;;;2.30;;
78889;SDS011;68279;48.964;14.502;2023-07-13T06:50:33;5.50;;;2.67;;
78889;SDS011;68279;48.964;14.502;2023-07-13T06:52:58;4.65;;;2.20;;
78889;SDS011;68279;48.964;14.502;2023-07-13T06:55:25;6.40;;;2.22;;
78889;SDS011;68279;48.964;14.502;2023-07-13T06:57:52;3.88;;;2.00;;
78889;SDS011;68279;48.964;14.502;2023-07-13T07:02:47;3.15;;;1.92;;
78889;SDS011;68279;48.964;14.502;2023-07-13T07:05:18;3.47;;;2.17;;
78889;SDS011;68279;48.964;14.502;2023-07-13T07:07:52;4.60;;;2.22;;
78889;SDS011;68279;48.964;14.502;2023-07-13T07:10:19;4.57;;;2.45;;
78889;SDS011;68279;48.964;14.502;2023-07-13T07:12:45;3.75;;;1.83;;
78889;SDS011;68279;48.964;14.502;2023-07-13T07:15:11;3.40;;;1.98;;
78889;SDS011;68279;48.964;14.502;2023-07-13T07:17:36;3.38;;;2.15;;
78889;SDS011;68279;48.964;14.502;2023-07-13T07:20:02;3.65;;;1.88;;
78889;SDS011;68279;48.964;14.502;2023-07-13T07:22:29;4.47;;;1.95;;
78889;SDS011;68279;48.964;14.502;2023-07-13T07:24:56;2.75;;;1.55;;
78889;SDS011;68279;48.964;14.502;2023-07-13T07:27:24;2.88;;;1.42;;
78889;SDS011;68279;48.964;14.502;2023-07-13T07:29:51;3.10;;;1.75;;
78889;SDS011;68279;48.964;14.502;2023-07-13T07:32:16;5.40;;;1.70;;
78889;SDS011;68279;48.964;14.502;2023-07-13T07:34:44;4.15;;;1.48;;
78889;SDS011;68279;48.964;14.502;2023-07-13T07:37:12;3.13;;;1.73;;
78889;SDS011;68279;48.964;14.502;2023-07-13T07:39:39;3.25;;;2.33;;
78889;SDS011;68279;48.964;14.502;2023-07-13T07:47:38;5.20;;;1.75;;
78889;SDS011;68279;48.964;14.502;2023-07-13T07:50:10;2.92;;;1.70;;
78889;SDS011;68279;48.964;14.502;2023-07-13T07:52:39;3.53;;;1.80;;
78889;SDS011;68279;48.964;14.502;2023-07-13T07:55:06;4.05;;;2.45;;
78889;SDS011;68279;48.964;14.502;2023-07-13T07:57:33;2.55;;;1.25;;
78889;SDS011;68279;48.964;14.502;2023-07-13T08:00:17;2.63;;;1.20;;
78889;SDS011;68279;48.964;14.502;2023-07-13T08:02:43;4.00;;;1.98;;
78889;SDS011;68279;48.964;14.502;2023-07-13T08:05:11;2.85;;;1.35;;
78889;SDS011;68279;48.964;14.502;2023-07-13T08:07:38;3.55;;;1.42;;
78889;SDS011;68279;48.964;14.502;2023-07-13T08:10:07;3.65;;;1.70;;
78889;SDS011;68279;48.964;14.502;2023-07-13T08:12:34;2.42;;;1.60;;
78889;SDS011;68279;48.964;14.502;2023-07-13T08:15:01;2.92;;;1.92;;
78889;SDS011;68279;48.964;14.502;2023-07-13T08:17:26;2.67;;;1.25;;
78889;SDS011;68279;48.964;14.502;2023-07-13T08:19:52;2.78;;;1.02;;
78889;SDS011;68279;48.964;14.502;2023-07-13T08:22:18;2.35;;;1.13;;
78889;SDS011;68279;48.964;14.502;2023-07-13T08:24:43;2.92;;;1.13;;
78889;SDS011;68279;48.964;14.502;2023-07-13T08:27:10;2.55;;;1.20;;
78889;SDS011;68279;48.964;14.502;2023-07-13T08:29:39;2.45;;;1.23;;
78889;SDS011;68279;48.964;14.502;2023-07-13T08:32:06;3.05;;;1.33;;
78889;SDS011;68279;48.964;14.502;2023-07-13T08:34:38;1.92;;;0.93;;
78889;SDS011;68279;48.964;14.502;2023-07-13T08:37:04;2.13;;;0.70;;
78889;SDS011;68279;48.964;14.502;2023-07-13T08:39:37;2.17;;;0.93;;
78889;SDS011;68279;48.964;14.502;2023-07-13T08:42:07;2.40;;;0.95;;
78889;SDS011;68279;48.964;14.502;2023-07-13T08:47:24;1.67;;;0.65;;
78889;SDS011;68279;48.964;14.502;2023-07-13T08:49:54;1.30;;;0.63;;
78889;SDS011;68279;48.964;14.502;2023-07-13T08:52:33;1.65;;;0.80;;
78889;SDS011;68279;48.964;14.502;2023-07-13T08:55:08;1.50;;;0.60;;
78889;SDS011;68279;48.964;14.502;2023-07-13T08:57:53;2.13;;;1.00;;
78889;SDS011;68279;48.964;14.502;2023-07-13T09:00:29;2.33;;;0.80;;
78889;SDS011;68279;48.964;14.502;2023-07-13T09:03:03;2.13;;;0.80;;
78889;SDS011;68279;48.964;14.502;2023-07-13T09:05:40;2.80;;;0.82;;
78889;SDS011;68279;48.964;14.502;2023-07-13T09:10:37;4.45;;;0.77;;
78889;SDS011;68279;48.964;14.502;2023-07-13T09:13:25;1.45;;;0.70;;
78889;SDS011;68279;48.964;14.502;2023-07-13T09:15:57;1.48;;;0.73;;
78889;SDS011;68279;48.964;14.502;2023-07-13T09:18:38;1.67;;;0.85;;
78889;SDS011;68279;48.964;14.502;2023-07-13T09:21:15;1.80;;;0.85;;
78889;SDS011;68279;48.964;14.502;2023-07-13T09:23:46;1.90;;;0.98;;
78889;SDS011;68279;48.964;14.502;2023-07-13T09:26:19;1.55;;;0.80;;
78889;SDS011;68279;48.964;14.502;2023-07-13T09:28:59;3.97;;;1.00;;
78889;SDS011;68279;48.964;14.502;2023-07-13T09:31:39;2.97;;;1.20;;
78889;SDS011;68279;48.964;14.502;2023-07-13T09:34:11;1.77;;;0.60;;
78889;SDS011;68279;48.964;14.502;2023-07-13T09:36:37;3.72;;;0.90;;
78889;SDS011;68279;48.964;14.502;2023-07-13T09:44:31;2.10;;;0.90;;
78889;SDS011;68279;48.964;14.502;2023-07-13T09:47:00;1.80;;;1.20;;
78889;SDS011;68279;48.964;14.502;2023-07-13T09:49:28;1.85;;;0.80;;
78889;SDS011;68279;48.964;14.502;2023-07-13T09:52:07;3.95;;;1.02;;
78889;SDS011;68279;48.964;14.502;2023-07-13T09:54:39;2.10;;;0.73;;
78889;SDS011;68279;48.964;14.502;2023-07-13T09:57:13;2.00;;;0.70;;
78889;SDS011;68279;48.964;14.502;2023-07-13T09:59:44;4.07;;;0.85;;
78889;SDS011;68279;48.964;14.502;2023-07-13T10:07:53;2.80;;;0.93;;
78889;SDS011;68279;48.964;14.502;2023-07-13T10:10:21;1.73;;;0.88;;
78889;SDS011;68279;48.964;14.502;2023-07-13T10:12:48;3.63;;;0.85;;
78889;SDS011;68279;48.964;14.502;2023-07-13T10:15:16;2.00;;;0.90;;
78889;SDS011;68279;48.964;14.502;2023-07-13T10:17:44;2.58;;;0.90;;
78889;SDS011;68279;48.964;14.502;2023-07-13T10:20:12;2.30;;;0.95;;
78889;SDS011;68279;48.964;14.502;2023-07-13T10:25:33;3.17;;;1.10;;
78889;SDS011;68279;48.964;14.502;2023-07-13T10:28:04;2.60;;;0.90;;
78889;SDS011;68279;48.964;14.502;2023-07-13T10:30:38;1.83;;;0.75;;
78889;SDS011;68279;48.964;14.502;2023-07-13T10:33:11;3.10;;;0.85;;
78889;SDS011;68279;48.964;14.502;2023-07-13T10:35:39;2.45;;;1.17;;
78889;SDS011;68279;48.964;14.502;2023-07-13T10:38:10;1.88;;;1.08;;
78889;SDS011;68279;48.964;14.502;2023-07-13T10:40:41;3.63;;;1.00;;
78889;SDS011;68279;48.964;14.502;2023-07-13T10:43:18;1.95;;;0.70;;
78889;SDS011;68279;48.964;14.502;2023-07-13T10:45:47;1.70;;;0.90;;
78889;SDS011;68279;48.964;14.502;2023-07-13T10:48:16;2.35;;;0.98;;
78889;SDS011;68279;48.964;14.502;2023-07-13T10:50:43;2.38;;;0.70;;
78889;SDS011;68279;48.964;14.502;2023-07-13T10:53:18;2.92;;;1.15;;
78889;SDS011;68279;48.964;14.502;2023-07-13T10:58:21;2.25;;;1.02;;
78889;SDS011;68279;48.964;14.502;2023-07-13T11:01:07;3.00;;;1.20;;
78889;SDS011;68279;48.964;14.502;2023-07-13T11:03:46;2.20;;;1.20;;
78889;SDS011;68279;48.964;14.502;2023-07-13T11:19:08;2.30;;;1.17;;
78889;SDS011;68279;48.964;14.502;2023-07-13T11:22:01;3.00;;;1.15;;
78889;SDS011;68279;48.964;14.502;2023-07-13T11:24:28;3.70;;;1.27;;
78889;SDS011;68279;48.964;14.502;2023-07-13T11:29:37;2.60;;;1.20;;
78889;SDS011;68279;48.964;14.502;2023-07-13T11:35:01;2.35;;;1.13;;
78889;SDS011;68279;48.964;14.502;2023-07-13T11:37:27;9.80;;;1.65;;
78889;SDS011;68279;48.964;14.502;2023-07-13T11:39:55;3.13;;;1.10;;
78889;SDS011;68279;48.964;14.502;2023-07-13T11:42:20;2.60;;;1.10;;
78889;SDS011;68279;48.964;14.502;2023-07-13T11:44:47;3.72;;;0.88;;
78889;SDS011;68279;48.964;14.502;2023-07-13T11:47:18;2.15;;;1.05;;
78889;SDS011;68279;48.964;14.502;2023-07-13T11:49:52;2.40;;;0.93;;
78889;SDS011;68279;48.964;14.502;2023-07-13T11:52:32;2.35;;;1.00;;
78889;SDS011;68279;48.964;14.502;2023-07-13T11:55:01;3.05;;;1.05;;
78889;SDS011;68279;48.964;14.502;2023-07-13T11:57:33;2.20;;;1.40;;
78889;SDS011;68279;48.964;14.502;2023-07-13T12:00:04;2.22;;;1.05;;
78889;SDS011;68279;48.964;14.502;2023-07-13T12:02:38;1.92;;;0.80;;
78889;SDS011;68279;48.964;14.502;2023-07-13T12:05:10;2.53;;;1.02;;
78889;SDS011;68279;48.964;14.502;2023-07-13T12:07:50;2.97;;;1.25;;
78889;SDS011;68279;48.964;14.502;2023-07-13T12:10:21;3.08;;;1.77;;
78889;SDS011;68279;48.964;14.502;2023-07-13T12:13:01;2.83;;;1.20;;
78889;SDS011;68279;48.964;14.502;2023-07-13T12:15:33;2.03;;;1.05;;
78889;SDS011;68279;48.964;14.502;2023-07-13T12:18:13;2.42;;;0.80;;
78889;SDS011;68279;48.964;14.502;2023-07-13T12:20:43;2.17;;;1.05;;
78889;SDS011;68279;48.964;14.502;2023-07-13T12:23:29;3.05;;;1.13;;
78889;SDS011;68279;48.964;14.502;2023-07-13T12:25:57;3.25;;;1.15;;
78889;SDS011;68279;48.964;14.502;2023-07-13T12:30:58;2.25;;;1.17;;
78889;SDS011;68279;48.964;14.502;2023-07-13T12:33:28;3.30;;;1.00;;
78889;SDS011;68279;48.964;14.502;2023-07-13T12:35:57;2.63;;;1.30;;
78889;SDS011;68279;48.964;14.502;2023-07-13T12:38:24;2.67;;;1.40;;
78889;SDS011;68279;48.964;14.502;2023-07-13T12:40:51;1.77;;;0.90;;
78889;SDS011;68279;48.964;14.502;2023-07-13T12:43:20;2.67;;;1.20;;
78889;SDS011;68279;48.964;14.502;2023-07-13T12:48:29;3.30;;;1.20;;
78889;SDS011;68279;48.964;14.502;2023-07-13T12:51:03;2.58;;;1.40;;
78889;SDS011;68279;48.964;14.502;2023-07-13T12:53:29;1.95;;;1.05;;
78889;SDS011;68279;48.964;14.502;2023-07-13T12:55:59;3.28;;;1.15;;
78889;SDS011;68279;48.964;14.502;2023-07-13T12:58:29;2.42;;;0.90;;
78889;SDS011;68279;48.964;14.502;2023-07-13T13:01:01;4.00;;;1.98;;
78889;SDS011;68279;48.964;14.502;2023-07-13T13:03:37;2.80;;;1.70;;
78889;SDS011;68279;48.964;14.502;2023-07-13T13:08:47;2.83;;;1.42;;
78889;SDS011;68279;48.964;14.502;2023-07-13T13:11:15;2.40;;;1.27;;
78889;SDS011;68279;48.964;14.502;2023-07-13T13:13:42;2.33;;;1.52;;
78889;SDS011;68279;48.964;14.502;2023-07-13T13:19:27;3.72;;;1.88;;
78889;SDS011;68279;48.964;14.502;2023-07-13T13:21:54;2.60;;;1.40;;
78889;SDS011;68279;48.964;14.502;2023-07-13T13:24:22;3.38;;;1.75;;
78889;SDS011;68279;48.964;14.502;2023-07-13T13:26:50;2.10;;;1.20;;
78889;SDS011;68279;48.964;14.502;2023-07-13T13:29:19;3.00;;;1.65;;
78889;SDS011;68279;48.964;14.502;2023-07-13T13:31:49;2.95;;;1.70;;
78889;SDS011;68279;48.964;14.502;2023-07-13T13:34:15;3.03;;;1.35;;
78889;SDS011;68279;48.964;14.502;2023-07-13T13:36:42;2.40;;;1.40;;
78889;SDS011;68279;48.964;14.502;2023-07-13T13:39:19;4.03;;;1.60;;
78889;SDS011;68279;48.964;14.502;2023-07-13T13:41:45;2.15;;;1.10;;
78889;SDS011;68279;48.964;14.502;2023-07-13T13:44:10;3.20;;;1.50;;
78889;SDS011;68279;48.964;14.502;2023-07-13T13:46:37;2.33;;;1.33;;
78889;SDS011;68279;48.964;14.502;2023-07-13T13:49:03;2.50;;;1.42;;
78889;SDS011;68279;48.964;14.502;2023-07-13T13:51:28;4.38;;;1.75;;
78889;SDS011;68279;48.964;14.502;2023-07-13T13:53:55;2.63;;;1.30;;
78889;SDS011;68279;48.964;14.502;2023-07-13T13:56:21;4.38;;;1.25;;
78889;SDS011;68279;48.964;14.502;2023-07-13T13:58:48;3.63;;;1.23;;
78889;SDS011;68279;48.964;14.502;2023-07-13T14:01:18;2.80;;;1.10;;
78889;SDS011;68279;48.964;14.502;2023-07-13T14:03:45;2.97;;;1.35;;
78889;SDS011;68279;48.964;14.502;2023-07-13T14:06:13;2.42;;;1.33;;
78889;SDS011;68279;48.964;14.502;2023-07-13T14:08:40;2.45;;;1.20;;
78889;SDS011;68279;48.964;14.502;2023-07-13T14:11:07;3.95;;;1.50;;
78889;SDS011;68279;48.964;14.502;2023-07-13T14:13:38;4.38;;;1.30;;
78889;SDS011;68279;48.964;14.502;2023-07-13T14:16:21;3.20;;;1.08;;
78889;SDS011;68279;48.964;14.502;2023-07-13T14:18:48;4.38;;;1.13;;
78889;SDS011;68279;48.964;14.502;2023-07-13T14:21:22;4.05;;;1.30;;
78889;SDS011;68279;48.964;14.502;2023-07-13T14:23:48;1.85;;;1.00;;
78889;SDS011;68279;48.964;14.502;2023-07-13T14:26:17;3.13;;;1.50;;
78889;SDS011;68279;48.964;14.502;2023-07-13T14:28:50;2.17;;;1.20;;
78889;SDS011;68279;48.964;14.502;2023-07-13T14:31:18;2.85;;;1.35;;
78889;SDS011;68279;48.964;14.502;2023-07-13T14:33:45;2.13;;;1.20;;
78889;SDS011;68279;48.964;14.502;2023-07-13T14:38:47;2.67;;;1.27;;
78889;SDS011;68279;48.964;14.502;2023-07-13T14:41:20;3.13;;;1.20;;
78889;SDS011;68279;48.964;14.502;2023-07-13T14:43:46;2.53;;;1.27;;
78889;SDS011;68279;48.964;14.502;2023-07-13T14:46:23;3.05;;;1.30;;
78889;SDS011;68279;48.964;14.502;2023-07-13T14:48:59;2.53;;;1.13;;
78889;SDS011;68279;48.964;14.502;2023-07-13T14:51:46;2.53;;;1.17;;
78889;SDS011;68279;48.964;14.502;2023-07-13T14:54:14;2.42;;;1.30;;
78889;SDS011;68279;48.964;14.502;2023-07-13T14:56:41;2.80;;;1.52;;
78889;SDS011;68279;48.964;14.502;2023-07-13T14:59:08;3.17;;;1.52;;
78889;SDS011;68279;48.964;14.502;2023-07-13T15:01:35;2.53;;;1.20;;
78889;SDS011;68279;48.964;14.502;2023-07-13T15:04:02;2.80;;;0.98;;
78889;SDS011;68279;48.964;14.502;2023-07-13T15:06:31;2.45;;;1.30;;
78889;SDS011;68279;48.964;14.502;2023-07-13T15:09:22;1.77;;;0.85;;
78889;SDS011;68279;48.964;14.502;2023-07-13T15:11:55;2.83;;;1.20;;
78889;SDS011;68279;48.964;14.502;2023-07-13T15:14:23;2.08;;;1.10;;
78889;SDS011;68279;48.964;14.502;2023-07-13T15:19:22;2.53;;;1.08;;
78889;SDS011;68279;48.964;14.502;2023-07-13T15:21:48;2.85;;;1.20;;
78889;SDS011;68279;48.964;14.502;2023-07-13T15:24:16;2.10;;;1.00;;
78889;SDS011;68279;48.964;14.502;2023-07-13T15:26:50;2.72;;;1.15;;
78889;SDS011;68279;48.964;14.502;2023-07-13T15:29:16;2.03;;;0.80;;
78889;SDS011;68279;48.964;14.502;2023-07-13T15:31:49;3.28;;;1.35;;
78889;SDS011;68279;48.964;14.502;2023-07-13T15:34:16;2.70;;;1.23;;
78889;SDS011;68279;48.964;14.502;2023-07-13T15:36:50;2.97;;;1.25;;
78889;SDS011;68279;48.964;14.502;2023-07-13T15:39:15;2.42;;;1.10;;
78889;SDS011;68279;48.964;14.502;2023-07-13T15:41:41;2.95;;;1.23;;
78889;SDS011;68279;48.964;14.502;2023-07-13T15:46:55;2.42;;;1.17;;
78889;SDS011;68279;48.964;14.502;2023-07-13T15:49:20;2.85;;;1.48;;